createdAt,value
2019-04-19T00:01:35.301Z,15.27
2019-04-19T00:04:05.125Z,12.40
2019-04-19T00:07:08.978Z,13.50
2019-04-19T00:09:43.847Z,13.70
2019-04-19T00:12:20.523Z,13.33
2019-04-19T00:14:33.772Z,13.60
2019-04-19T00:17:06.287Z,13.17
2019-04-19T00:19:53.820Z,13.13
2019-04-19T00:22:22.961Z,13.00
2019-04-19T00:24:36.083Z,10.30
2019-04-19T00:27:05.877Z,9.93
2019-04-19T00:29:44.836Z,12.40
2019-04-19T00:32:23.129Z,11.60
2019-04-19T00:34:37.788Z,12.73
2019-04-19T00:37:07.857Z,12.93
2019-04-19T00:40:02.976Z,12.40
2019-04-19T00:42:47.993Z,13.10
2019-04-19T00:45:38.663Z,11.50
2019-04-19T00:48:07.810Z,11.80
2019-04-19T00:50:41.688Z,11.03
2019-04-19T00:53:11.146Z,11.57
2019-04-19T00:55:43.002Z,10.20
2019-04-19T00:58:10.681Z,11.10
2019-04-19T01:00:36.602Z,11.50
2019-04-19T01:03:06.353Z,10.37
2019-04-19T01:05:42.420Z,10.33
2019-04-19T01:08:13.130Z,10.90
2019-04-19T01:10:51.310Z,9.63
2019-04-19T01:13:23.766Z,9.43
2019-04-19T01:15:57.170Z,11.80
2019-04-19T01:18:25.362Z,9.80
2019-04-19T01:20:43.865Z,10.23
2019-04-19T01:23:16.367Z,9.90
2019-04-19T01:25:52.434Z,9.10
2019-04-19T01:28:21.006Z,10.93
2019-04-19T01:30:49.344Z,10.07
2019-04-19T01:33:35.651Z,9.27
2019-04-19T01:36:04.129Z,10.30
2019-04-19T01:38:41.957Z,10.70
2019-04-19T01:41:20.784Z,10.00
2019-04-19T01:43:56.406Z,9.43
2019-04-19T01:46:40.635Z,7.77
2019-04-19T01:49:08.656Z,8.27
2019-04-19T01:51:51.602Z,7.60
2019-04-19T01:54:34.718Z,8.10
2019-04-19T01:56:55.654Z,8.90
2019-04-19T01:59:25.996Z,9.60
2019-04-19T02:02:00.130Z,8.67
2019-04-19T02:04:26.893Z,9.10
2019-04-19T02:06:54.778Z,7.40
2019-04-19T02:09:34.988Z,8.33
2019-04-19T02:12:15.361Z,7.87
2019-04-19T02:14:40.581Z,8.10
2019-04-19T02:17:06.410Z,9.80
2019-04-19T02:19:35.563Z,8.40
2019-04-19T02:22:10.152Z,7.67
2019-04-19T02:24:42.319Z,7.40
2019-04-19T02:27:13.064Z,8.50
2019-04-19T02:29:49.765Z,7.70
2019-04-19T02:32:30.992Z,8.27
2019-04-19T02:35:13.198Z,7.60
2019-04-19T02:37:39.770Z,7.40
2019-04-19T02:40:21.656Z,7.00
2019-04-19T02:50:22.583Z,8.10
2019-04-19T02:52:47.244Z,7.80
2019-04-19T03:00:54.607Z,7.80
2019-04-19T03:05:51.741Z,7.47
2019-04-19T03:07:57.669Z,7.40
2019-04-19T03:12:12.612Z,7.97
2019-04-19T03:14:49.401Z,6.50
2019-04-19T03:17:20.420Z,8.87
2019-04-19T03:19:52.254Z,7.70
2019-04-19T03:22:23.203Z,7.33
2019-04-19T03:24:56.031Z,7.43
2019-04-19T03:27:17.125Z,7.60
2019-04-19T03:29:44.858Z,7.60
2019-04-19T03:35:04.027Z,7.67
2019-04-19T03:37:30.750Z,7.47
2019-04-19T03:40:14.794Z,7.17
2019-04-19T03:45:14.067Z,7.13
2019-04-19T03:47:45.633Z,6.85
2019-04-19T03:50:15.154Z,7.23
2019-04-19T03:52:48.741Z,7.40
2019-04-19T03:55:21.357Z,6.93
2019-04-19T03:57:43.835Z,8.13
2019-04-19T04:00:02.801Z,7.27
2019-04-19T04:02:36.869Z,7.50
2019-04-19T04:05:09.686Z,7.70
2019-04-19T04:07:37.101Z,7.77
2019-04-19T04:10:26.006Z,6.97
2019-04-19T04:13:24.138Z,7.17
2019-04-19T04:16:11.542Z,7.47
2019-04-19T04:18:34.889Z,7.20
2019-04-19T04:21:05.489Z,7.43
2019-04-19T04:23:42.132Z,6.90
2019-04-19T04:26:12.932Z,7.97
2019-04-19T04:28:54.562Z,6.50
2019-04-19T04:31:19.465Z,7.57
2019-04-19T04:33:54.513Z,6.50
2019-04-19T04:36:29.874Z,7.50
2019-04-19T04:38:47.764Z,7.70
2019-04-19T04:41:22.646Z,7.53
2019-04-19T04:44:10.143Z,5.60
2019-04-19T04:46:52.857Z,6.97
2019-04-19T04:49:34.473Z,7.43
2019-04-19T04:51:56.012Z,7.67
2019-04-19T04:54:16.544Z,7.47
2019-04-19T04:57:01.095Z,7.90
2019-04-19T04:59:26.731Z,7.70
2019-04-19T05:02:03.545Z,6.62
2019-04-19T05:04:38.824Z,6.73
2019-04-19T05:07:24.313Z,7.93
2019-04-19T05:09:51.058Z,7.10
2019-04-19T05:12:33.105Z,5.57
2019-04-19T05:14:51.202Z,7.20
2019-04-19T05:17:37.077Z,7.00
2019-04-19T05:19:59.005Z,6.80
2019-04-19T05:22:22.154Z,7.57
2019-04-19T05:25:07.522Z,6.93
2019-04-19T05:27:27.864Z,7.00
2019-04-19T05:29:46.357Z,7.20
2019-04-19T05:32:19.712Z,6.60
2019-04-19T05:35:03.067Z,7.20
2019-04-19T05:37:38.491Z,7.00
2019-04-19T05:40:24.327Z,6.90
2019-04-19T05:42:58.222Z,7.10
2019-04-19T05:47:56.658Z,7.30
2019-04-19T05:50:35.832Z,8.10
2019-04-19T05:53:06.645Z,6.97
2019-04-19T05:55:22.275Z,7.30
2019-04-19T05:58:05.607Z,7.17
2019-04-19T06:00:43.646Z,8.53
2019-04-19T06:03:10.384Z,7.77
2019-04-19T06:05:58.554Z,4.90
2019-04-19T06:08:10.522Z,7.70
2019-04-19T06:10:35.416Z,7.67
2019-04-19T06:13:07.447Z,8.90
2019-04-19T06:15:57.971Z,7.40
2019-04-19T06:18:36.136Z,7.80
2019-04-19T06:21:15.278Z,6.43
2019-04-19T06:23:50.823Z,6.50
2019-04-19T06:28:58.447Z,7.83
2019-04-19T06:31:37.054Z,8.00
2019-04-19T06:33:48.453Z,7.97
2019-04-19T06:36:05.808Z,7.67
2019-04-19T06:38:33.075Z,7.97
2019-04-19T06:41:10.307Z,7.70
2019-04-19T06:43:48.679Z,7.13
2019-04-19T06:46:16.522Z,8.55
2019-04-19T06:48:38.269Z,7.40
2019-04-19T06:51:17.380Z,10.10
2019-04-19T06:53:47.344Z,6.87
2019-04-19T06:56:19.152Z,9.80
2019-04-19T06:58:51.295Z,8.30
2019-04-19T07:01:26.034Z,8.40
2019-04-19T07:03:44.899Z,8.93
2019-04-19T07:06:32.418Z,8.10
2019-04-19T07:09:14.253Z,7.80
2019-04-19T07:11:43.671Z,8.80
2019-04-19T07:13:58.500Z,8.20
2019-04-19T07:16:55.771Z,8.80
2019-04-19T07:19:14.590Z,8.90
2019-04-19T07:21:42.699Z,8.10
2019-04-19T07:24:24.769Z,8.70
2019-04-19T07:26:50.213Z,8.03
2019-04-19T07:28:59.989Z,8.90
2019-04-19T07:31:30.455Z,9.80
2019-04-19T07:34:09.787Z,8.43
2019-04-19T07:36:51.642Z,7.83
2019-04-19T07:39:20.603Z,9.20
2019-04-19T07:41:53.850Z,8.83
2019-04-19T07:44:41.669Z,9.00
2019-04-19T07:47:40.174Z,9.50
2019-04-19T07:50:12.321Z,9.53
2019-04-19T07:52:41.192Z,9.80
2019-04-19T07:55:09.150Z,8.57
2019-04-19T08:00:42.782Z,8.70
2019-04-19T08:03:06.842Z,9.80
2019-04-19T08:05:41.082Z,9.83
2019-04-19T08:15:55.120Z,10.77
2019-04-19T08:18:50.589Z,10.23
2019-04-19T08:28:13.249Z,10.67
2019-04-19T08:30:39.116Z,9.73
2019-04-19T08:33:02.632Z,11.23
2019-04-19T08:35:39.966Z,11.53
2019-04-19T08:38:10.200Z,10.50
2019-04-19T08:40:55.214Z,11.17
2019-04-19T08:43:21.001Z,10.60
2019-04-19T08:45:59.091Z,10.87
2019-04-19T08:48:59.377Z,10.30
2019-04-19T08:51:45.232Z,10.77
2019-04-19T08:54:37.259Z,9.70
2019-04-19T08:56:54.544Z,10.00
2019-04-19T08:59:39.669Z,10.90
2019-04-19T09:02:08.211Z,8.70
2019-04-19T09:04:34.818Z,10.80
2019-04-19T09:07:34.019Z,10.00
2019-04-19T09:09:48.102Z,10.90
2019-04-19T09:12:16.172Z,10.63
2019-04-19T09:14:45.877Z,9.23
2019-04-19T09:17:20.820Z,9.10
2019-04-19T09:22:20.884Z,9.90
2019-04-19T09:24:42.880Z,9.27
2019-04-19T09:27:31.603Z,8.60
2019-04-19T09:29:55.240Z,9.40
2019-04-19T09:32:10.328Z,9.10
2019-04-19T09:34:43.919Z,8.07
2019-04-19T09:37:18.346Z,8.97
2019-04-19T09:39:48.602Z,7.80
2019-04-19T09:42:23.710Z,8.63
2019-04-19T09:44:48.294Z,8.77
2019-04-19T09:47:14.291Z,8.70
2019-04-19T09:49:57.975Z,8.60
2019-04-19T09:52:39.660Z,7.90
2019-04-19T09:55:09.720Z,7.53
2019-04-19T09:57:41.828Z,7.80
2019-04-19T09:59:58.264Z,7.43
2019-04-19T10:02:29.025Z,7.17
2019-04-19T10:04:54.957Z,7.37
2019-04-19T10:07:25.103Z,7.50
2019-04-19T10:10:02.796Z,7.97
2019-04-19T10:12:27.243Z,8.27
2019-04-19T10:14:59.755Z,8.47
2019-04-19T10:17:29.138Z,7.23
2019-04-19T10:19:58.458Z,8.20
2019-04-19T10:22:28.564Z,7.90
2019-04-19T10:25:01.264Z,7.17
2019-04-19T10:27:33.371Z,8.30
2019-04-19T10:30:04.250Z,7.03
2019-04-19T10:32:35.083Z,6.80
2019-04-19T10:35:05.275Z,7.33
2019-04-19T10:37:35.712Z,7.67
2019-04-19T10:40:07.920Z,6.60
2019-04-19T10:42:37.234Z,6.97
2019-04-19T10:45:07.992Z,6.47
2019-04-19T10:47:37.899Z,5.63
2019-04-19T10:50:24.380Z,6.80
2019-04-19T10:52:39.453Z,6.53
2019-04-19T10:55:08.915Z,6.63
2019-04-19T10:57:39.028Z,5.60
2019-04-19T11:00:09.298Z,5.67
2019-04-19T11:02:40.125Z,6.47
2019-04-19T11:05:11.293Z,7.10
2019-04-19T11:07:43.629Z,7.23
2019-04-19T11:10:13.814Z,6.00
2019-04-19T11:12:43.129Z,6.10
2019-04-19T11:15:12.998Z,6.57
2019-04-19T11:17:43.621Z,6.07
2019-04-19T11:20:26.209Z,5.60
2019-04-19T11:22:46.011Z,6.47
2019-04-19T11:25:15.390Z,6.10
2019-04-19T11:27:49.578Z,6.97
2019-04-19T11:30:37.185Z,5.80
2019-04-19T11:33:15.013Z,6.30
2019-04-19T11:35:53.213Z,6.20
2019-04-19T11:38:25.056Z,6.47
2019-04-19T11:40:55.464Z,6.07
2019-04-19T11:43:25.303Z,6.50
2019-04-19T11:45:55.733Z,5.63
2019-04-19T11:48:26.927Z,6.30
2019-04-19T11:50:56.421Z,5.50
2019-04-19T11:53:38.764Z,6.50
2019-04-19T11:56:45.293Z,6.37
2019-04-19T11:59:11.174Z,6.20
2019-04-19T12:01:41.875Z,7.40
2019-04-19T12:04:12.692Z,6.03
2019-04-19T12:06:42.712Z,5.97
2019-04-19T12:09:12.683Z,6.50
2019-04-19T12:11:44.203Z,6.23
2019-04-19T12:14:17.239Z,6.77
2019-04-19T12:16:47.467Z,6.13
2019-04-19T12:19:18.259Z,6.13
2019-04-19T12:21:47.744Z,5.73
2019-04-19T12:24:17.124Z,6.33
2019-04-19T12:26:47.491Z,6.93
2019-04-19T12:29:27.641Z,5.43
2019-04-19T12:31:49.601Z,6.30
2019-04-19T12:34:19.295Z,5.30
2019-04-19T12:36:49.026Z,6.53
2019-04-19T12:39:18.923Z,5.80
2019-04-19T12:41:48.306Z,5.80
2019-04-19T12:44:17.954Z,6.77
2019-04-19T12:46:47.278Z,6.77
2019-04-19T12:49:16.876Z,6.83
2019-04-19T12:51:46.583Z,6.90
2019-04-19T12:54:18.297Z,6.13
2019-04-19T12:56:47.715Z,6.30
2019-04-19T12:59:19.674Z,5.37
2019-04-19T13:02:10.036Z,7.77
2019-04-19T13:05:16.281Z,6.87
2019-04-19T13:07:45.558Z,7.07
2019-04-19T13:10:15.139Z,6.50
2019-04-19T13:12:45.474Z,6.83
2019-04-19T13:15:17.657Z,6.53
2019-04-19T13:17:48.417Z,7.60
2019-04-19T13:20:25.858Z,7.17
2019-04-19T13:22:50.507Z,7.50
2019-04-19T13:25:21.393Z,6.47
2019-04-19T13:27:55.078Z,7.63
2019-04-19T13:30:33.031Z,6.50
2019-04-19T13:32:58.553Z,6.90
2019-04-19T13:35:29.168Z,6.23
2019-04-19T13:38:19.153Z,6.93
2019-04-19T13:41:07.071Z,7.50
2019-04-19T13:43:36.933Z,6.90
2019-04-19T13:46:06.629Z,6.60
2019-04-19T13:48:36.759Z,7.80
2019-04-19T13:51:06.746Z,6.70
2019-04-19T13:53:36.528Z,6.50
2019-04-19T13:56:06.688Z,6.13
2019-04-19T13:58:37.928Z,5.03
2019-04-19T14:01:07.512Z,5.43
2019-04-19T14:03:37.426Z,6.13
2019-04-19T14:06:08.562Z,4.60
2019-04-19T14:08:37.968Z,4.80
2019-04-19T14:11:07.235Z,5.60
2019-04-19T14:13:37.030Z,5.00
2019-04-19T14:16:07.073Z,4.50
2019-04-19T14:18:38.679Z,5.60
2019-04-19T14:21:08.676Z,6.33
2019-04-19T14:23:39.534Z,5.10
2019-04-19T14:26:09.727Z,4.33
2019-04-19T14:28:39.489Z,4.57
2019-04-19T14:31:10.202Z,4.37
2019-04-19T14:33:39.650Z,4.50
2019-04-19T14:36:10.208Z,5.13
2019-04-19T14:38:41.497Z,3.80
2019-04-19T14:41:11.500Z,3.87
2019-04-19T14:43:41.104Z,3.40
2019-04-19T14:46:11.132Z,4.40
2019-04-19T14:48:41.893Z,4.10
2019-04-19T14:51:18.567Z,4.37
2019-04-19T14:53:42.954Z,4.30
2019-04-19T14:56:15.057Z,4.50
2019-04-19T14:58:44.938Z,4.50
2019-04-19T15:01:45.238Z,4.97
2019-04-19T15:04:37.067Z,4.53
2019-04-19T15:07:07.693Z,4.30
2019-04-19T15:09:37.469Z,4.07
2019-04-19T15:12:07.128Z,3.73
2019-04-19T15:14:37.344Z,4.00
2019-04-19T15:17:07.266Z,4.40
2019-04-19T15:19:37.502Z,4.07
2019-04-19T15:22:08.238Z,4.07
2019-04-19T15:24:38.886Z,5.30
2019-04-19T15:27:10.577Z,5.20
2019-04-19T15:29:40.986Z,5.03
2019-04-19T15:32:10.618Z,4.37
2019-04-19T15:34:40.004Z,4.37
2019-04-19T15:37:09.666Z,4.40
2019-04-19T15:39:39.897Z,4.00
2019-04-19T15:42:10.645Z,4.20
2019-04-19T15:44:40.512Z,4.90
2019-04-19T15:47:10.699Z,5.07
2019-04-19T15:49:40.089Z,5.17
2019-04-19T15:52:10.174Z,5.37
2019-04-19T15:54:39.529Z,5.20
2019-04-19T15:57:10.129Z,4.47
2019-04-19T15:59:39.535Z,5.03
2019-04-19T16:02:34.013Z,5.40
2019-04-19T16:05:28.335Z,5.40
2019-04-19T16:08:20.515Z,7.20
2019-04-19T16:11:21.038Z,6.20
2019-04-19T16:13:50.362Z,7.10
2019-04-19T16:16:22.819Z,7.70
2019-04-19T16:18:52.100Z,8.27
2019-04-19T16:21:30.800Z,8.03
2019-04-19T16:23:53.238Z,7.10
2019-04-19T16:26:24.297Z,7.33
2019-04-19T16:28:53.841Z,6.40
2019-04-19T16:31:24.288Z,5.10
2019-04-19T16:33:54.181Z,6.40
2019-04-19T16:36:23.855Z,6.70
2019-04-19T16:38:53.890Z,6.93
2019-04-19T16:41:24.783Z,6.30
2019-04-19T16:43:55.307Z,6.30
2019-04-19T16:46:27.763Z,8.70
2019-04-19T16:48:58.271Z,7.67
2019-04-19T16:51:41.191Z,6.70
2019-04-19T16:54:00.241Z,6.63
2019-04-19T16:56:30.274Z,7.28
2019-04-19T16:59:01.362Z,7.30
2019-04-19T17:01:30.730Z,6.50
2019-04-19T17:04:01.577Z,7.07
2019-04-19T17:06:32.866Z,6.97
2019-04-19T17:09:02.737Z,7.30
2019-04-19T17:11:33.088Z,8.00
2019-04-19T17:14:03.484Z,6.80
2019-04-19T17:17:00.364Z,7.70
2019-04-19T17:20:00.701Z,8.10
2019-04-19T17:22:40.902Z,8.00
2019-04-19T17:25:12.951Z,8.00
2019-04-19T17:27:43.162Z,7.53
2019-04-19T17:30:14.848Z,7.63
2019-04-19T17:32:46.292Z,8.63
2019-04-19T17:35:16.420Z,8.13
2019-04-19T17:37:45.856Z,8.40
2019-04-19T17:40:16.489Z,8.17
2019-04-19T17:42:48.668Z,7.37
2019-04-19T17:45:19.965Z,7.90
2019-04-19T17:47:50.328Z,7.90
2019-04-19T17:50:22.753Z,7.60
2019-04-19T17:52:52.800Z,7.50
2019-04-19T17:55:30.588Z,8.00
2019-04-19T17:57:53.587Z,8.17
2019-04-19T18:00:26.104Z,8.07
2019-04-19T18:02:57.138Z,9.10
2019-04-19T18:05:26.610Z,7.70
2019-04-19T18:07:56.367Z,9.43
2019-04-19T18:10:33.573Z,9.18
2019-04-19T18:12:57.622Z,8.10
2019-04-19T18:15:27.820Z,9.87
2019-04-19T18:18:03.151Z,10.20
2019-04-19T18:20:29.302Z,9.33
2019-04-19T18:23:06.612Z,8.87
2019-04-19T18:25:32.992Z,9.13
2019-04-19T18:28:06.152Z,8.43
2019-04-19T18:30:40.548Z,9.60
2019-04-19T18:33:10.587Z,9.77
2019-04-19T18:35:40.555Z,9.40
2019-04-19T18:38:16.748Z,8.50
2019-04-19T18:40:43.080Z,8.57
2019-04-19T18:43:24.705Z,7.80
2019-04-19T18:45:44.071Z,8.50
2019-04-19T18:48:13.670Z,8.97
2019-04-19T18:50:48.002Z,9.40
2019-04-19T18:53:23.075Z,10.50
2019-04-19T18:55:49.072Z,9.90
2019-04-19T18:58:22.222Z,9.83
2019-04-19T19:00:50.705Z,10.40
2019-04-19T19:03:19.976Z,10.40
2019-04-19T19:05:56.353Z,10.10
2019-04-19T19:08:27.915Z,10.20
2019-04-19T19:10:56.465Z,12.00
2019-04-19T19:13:31.980Z,11.47
2019-04-19T19:15:57.952Z,10.23
2019-04-19T19:18:35.061Z,11.20
2019-04-19T19:21:01.362Z,11.53
2019-04-19T19:23:44.670Z,10.90
2019-04-19T19:26:10.726Z,12.03
2019-04-19T19:28:31.944Z,11.13
2019-04-19T19:31:01.259Z,11.30
2019-04-19T19:33:37.834Z,10.30
2019-04-19T19:36:05.037Z,11.37
2019-04-19T19:38:38.625Z,10.90
2019-04-19T19:41:24.369Z,13.17
2019-04-19T19:43:52.515Z,12.77
2019-04-19T19:46:34.081Z,13.77
2019-04-19T19:49:19.090Z,12.23
2019-04-19T19:51:32.311Z,12.20
2019-04-19T19:54:28.519Z,11.97
2019-04-19T19:59:02.188Z,13.33
2019-04-19T20:01:33.422Z,11.07
2019-04-19T20:03:56.277Z,10.87
2019-04-19T20:06:28.289Z,12.30
2019-04-19T20:08:59.342Z,12.33
2019-04-19T20:11:31.610Z,10.80
2019-04-19T20:14:02.510Z,11.83
2019-04-19T20:16:33.358Z,10.90
2019-04-19T20:19:03.832Z,12.73
2019-04-19T20:21:34.450Z,13.67
2019-04-19T20:24:15.012Z,12.60
2019-04-19T20:26:49.192Z,10.57
2019-04-19T20:29:11.768Z,13.20
2019-04-19T20:31:39.607Z,11.50
2019-04-19T20:34:08.944Z,11.53
2019-04-19T20:36:43.246Z,11.60
2019-04-19T20:39:13.507Z,11.67
2019-04-19T20:41:49.966Z,12.23
2019-04-19T20:44:31.436Z,11.90
2019-04-19T20:46:46.314Z,10.83
2019-04-19T20:49:17.155Z,11.40
2019-04-19T20:52:03.157Z,11.23
2019-04-19T20:54:46.335Z,10.90
2019-04-19T20:57:33.673Z,13.25
2019-04-19T20:59:54.166Z,12.60
2019-04-19T21:02:27.474Z,13.07
2019-04-19T21:04:57.102Z,11.30
2019-04-19T21:07:25.896Z,13.20
2019-04-19T21:09:53.956Z,13.00
2019-04-19T21:12:27.761Z,11.70
2019-04-19T21:15:06.752Z,11.97
2019-04-19T21:17:33.809Z,13.70
2019-04-19T21:19:58.485Z,11.00
2019-04-19T21:22:31.328Z,11.63
2019-04-19T21:25:09.043Z,12.53
2019-04-19T21:27:33.633Z,11.85
2019-04-19T21:30:06.470Z,12.73
2019-04-19T21:32:35.533Z,13.03
2019-04-19T21:35:10.471Z,11.60
2019-04-19T21:37:43.691Z,11.13
2019-04-19T21:40:10.206Z,11.80
2019-04-19T21:42:46.813Z,12.63
2019-04-19T21:45:12.026Z,11.87
2019-04-19T21:47:47.155Z,11.57
2019-04-19T21:50:13.153Z,11.50
2019-04-19T21:52:52.540Z,12.00
2019-04-19T21:55:25.285Z,10.73
2019-04-19T21:57:46.141Z,11.37
2019-04-19T22:00:32.541Z,11.30
2019-04-19T22:03:05.937Z,11.70
2019-04-19T22:05:35.751Z,10.90
2019-04-19T22:08:04.252Z,12.57
2019-04-19T22:10:39.984Z,12.07
2019-04-19T22:13:06.433Z,11.90
2019-04-19T22:15:44.215Z,12.33
2019-04-19T22:18:08.386Z,11.60
2019-04-19T22:20:38.621Z,11.37
2019-04-19T22:23:10.874Z,11.87
2019-04-19T22:25:51.335Z,11.50
2019-04-19T22:28:12.240Z,11.90
2019-04-19T22:30:45.385Z,12.27
2019-04-19T22:33:12.698Z,12.43
2019-04-19T22:35:46.122Z,12.43
2019-04-19T22:38:17.878Z,12.10
2019-04-19T22:40:44.992Z,13.37
2019-04-19T22:43:15.085Z,12.90
2019-04-19T22:45:50.069Z,11.63
2019-04-19T22:48:19.635Z,13.30
2019-04-19T22:50:48.963Z,10.90
2019-04-19T22:53:28.116Z,12.60
2019-04-19T22:56:02.286Z,12.30
2019-04-19T22:58:27.904Z,12.20
2019-04-19T23:00:54.464Z,11.73
2019-04-19T23:03:36.896Z,12.57
2019-04-19T23:06:04.257Z,11.90
2019-04-19T23:08:39.477Z,12.60
2019-04-19T23:11:09.216Z,12.60
2019-04-19T23:13:37.906Z,12.10
2019-04-19T23:16:09.793Z,11.97
2019-04-19T23:18:39.172Z,11.87
2019-04-19T23:21:13.312Z,12.53
2019-04-19T23:23:40.977Z,12.60
2019-04-19T23:26:22.373Z,9.03
2019-04-19T23:28:44.247Z,11.00
2019-04-19T23:31:16.002Z,12.30
2019-04-19T23:33:55.048Z,11.80
2019-04-19T23:36:21.250Z,12.83
2019-04-19T23:38:52.143Z,12.33
2019-04-19T23:41:19.356Z,11.50
2019-04-19T23:43:48.986Z,10.20
2019-04-19T23:46:24.087Z,12.60
2019-04-19T23:48:50.122Z,11.60
2019-04-19T23:51:21.211Z,12.27
2019-04-19T23:53:50.601Z,11.20
2019-04-19T23:56:29.741Z,12.67
2019-04-19T23:58:52.205Z,12.17
